sensor_id;sensor_type;location;lat;lon;timestamp;pressure;altitude;pressure_sealevel;temperature;humidity
28312;BME280;15572;48.810;9.148;2023-08-08T00:02:30;98243.31;;;14.55;88.04
28312;BME280;15572;48.810;9.148;2023-08-08T00:07:27;98243.16;;;14.74;86.32
28312;BME280;15572;48.810;9.148;2023-08-08T00:12:25;98241.38;;;14.87;85.33
28312;BME280;15572;48.810;9.148;2023-08-08T00:17:21;98238.81;;;14.92;84.92
28312;BME280;15572;48.810;9.148;2023-08-08T00:22:19;98245.94;;;14.93;85.11
28312;BME280;15572;48.810;9.148;2023-08-08T00:27:16;98251.78;;;14.96;85.20
28312;BME280;15572;48.810;9.148;2023-08-08T00:32:12;98248.47;;;14.94;85.46
28312;BME280;15572;48.810;9.148;2023-08-08T00:37:09;98240.03;;;14.96;85.02
28312;BME280;15572;48.810;9.148;2023-08-08T00:42:07;98233.31;;;14.98;85.02
28312;BME280;15572;48.810;9.148;2023-08-08T00:47:03;98233.94;;;15.00;84.85
28312;BME280;15572;48.810;9.148;2023-08-08T00:52:00;98230.47;;;15.11;83.86
28312;BME280;15572;48.810;9.148;2023-08-08T00:56:56;98231.38;;;15.05;84.61
28312;BME280;15572;48.810;9.148;2023-08-08T01:01:54;98225.09;;;15.05;84.53
28312;BME280;15572;48.810;9.148;2023-08-08T01:06:55;98219.56;;;15.11;83.31
28312;BME280;15572;48.810;9.148;2023-08-08T01:11:54;98221.47;;;15.11;83.66
28312;BME280;15572;48.810;9.148;2023-08-08T01:16:52;98226.50;;;15.07;84.67
28312;BME280;15572;48.810;9.148;2023-08-08T01:21:57;98221.84;;;15.14;83.55
28312;BME280;15572;48.810;9.148;2023-08-08T01:26:56;98225.41;;;15.15;83.69
28312;BME280;15572;48.810;9.148;2023-08-08T01:31:53;98220.16;;;15.13;84.48
28312;BME280;15572;48.810;9.148;2023-08-08T01:36:54;98213.03;;;15.12;85.02
28312;BME280;15572;48.810;9.148;2023-08-08T01:41:53;98203.66;;;15.08;85.18
28312;BME280;15572;48.810;9.148;2023-08-08T01:46:52;98205.59;;;15.01;85.54
28312;BME280;15572;48.810;9.148;2023-08-08T01:51:48;98203.78;;;14.95;87.56
28312;BME280;15572;48.810;9.148;2023-08-08T01:56:45;98204.84;;;14.94;87.41
28312;BME280;15572;48.810;9.148;2023-08-08T02:01:42;98199.25;;;15.07;86.65
28312;BME280;15572;48.810;9.148;2023-08-08T02:06:40;98204.78;;;15.19;85.03
28312;BME280;15572;48.810;9.148;2023-08-08T02:11:36;98202.63;;;15.28;84.55
28312;BME280;15572;48.810;9.148;2023-08-08T02:16:32;98195.25;;;15.28;84.20
28312;BME280;15572;48.810;9.148;2023-08-08T02:21:29;98197.47;;;15.20;84.88
28312;BME280;15572;48.810;9.148;2023-08-08T02:26:27;98193.06;;;15.18;85.21
28312;BME280;15572;48.810;9.148;2023-08-08T02:31:24;98189.97;;;15.15;85.50
28312;BME280;15572;48.810;9.148;2023-08-08T02:36:20;98192.44;;;14.98;86.81
28312;BME280;15572;48.810;9.148;2023-08-08T02:41:17;98194.88;;;14.82;88.63
28312;BME280;15572;48.810;9.148;2023-08-08T02:46:15;98197.25;;;14.78;88.88
28312;BME280;15572;48.810;9.148;2023-08-08T02:51:11;98196.75;;;14.63;90.21
28312;BME280;15572;48.810;9.148;2023-08-08T02:56:08;98187.59;;;14.51;91.13
28312;BME280;15572;48.810;9.148;2023-08-08T03:01:04;98183.22;;;14.50;90.96
28312;BME280;15572;48.810;9.148;2023-08-08T03:06:03;98191.22;;;14.69;88.93
28312;BME280;15572;48.810;9.148;2023-08-08T03:10:59;98182.94;;;14.58;90.09
28312;BME280;15572;48.810;9.148;2023-08-08T03:15:56;98180.66;;;14.55;90.57
28312;BME280;15572;48.810;9.148;2023-08-08T03:20:52;98180.06;;;14.53;91.06
28312;BME280;15572;48.810;9.148;2023-08-08T03:25:50;98183.00;;;14.51;90.67
28312;BME280;15572;48.810;9.148;2023-08-08T03:30:47;98185.09;;;14.49;91.51
28312;BME280;15572;48.810;9.148;2023-08-08T03:35:43;98191.06;;;14.64;90.33
28312;BME280;15572;48.810;9.148;2023-08-08T03:40:40;98186.38;;;14.71;88.80
28312;BME280;15572;48.810;9.148;2023-08-08T03:45:38;98180.25;;;14.76;88.76
28312;BME280;15572;48.810;9.148;2023-08-08T03:50:35;98186.56;;;14.77;88.87
28312;BME280;15572;48.810;9.148;2023-08-08T03:55:32;98192.16;;;14.82;88.81
28312;BME280;15572;48.810;9.148;2023-08-08T04:00:28;98177.66;;;14.88;87.67
28312;BME280;15572;48.810;9.148;2023-08-08T04:05:26;98186.66;;;15.06;86.55
28312;BME280;15572;48.810;9.148;2023-08-08T04:10:22;98192.59;;;15.03;86.38
28312;BME280;15572;48.810;9.148;2023-08-08T04:15:19;98187.66;;;15.12;85.71
28312;BME280;15572;48.810;9.148;2023-08-08T04:20:15;98185.63;;;15.07;86.42
28312;BME280;15572;48.810;9.148;2023-08-08T04:25:14;98176.84;;;15.05;86.22
28312;BME280;15572;48.810;9.148;2023-08-08T04:30:11;98189.81;;;15.10;85.76
28312;BME280;15572;48.810;9.148;2023-08-08T04:35:08;98188.75;;;15.11;85.78
28312;BME280;15572;48.810;9.148;2023-08-08T04:40:05;98194.84;;;15.06;86.77
28312;BME280;15572;48.810;9.148;2023-08-08T04:45:06;98193.88;;;15.01;87.28
28312;BME280;15572;48.810;9.148;2023-08-08T04:50:03;98204.16;;;14.99;87.65
28312;BME280;15572;48.810;9.148;2023-08-08T04:54:59;98205.22;;;14.98;87.90
28312;BME280;15572;48.810;9.148;2023-08-08T04:59:56;98206.13;;;14.92;88.77
28312;BME280;15572;48.810;9.148;2023-08-08T05:04:54;98202.00;;;14.83;90.03
28312;BME280;15572;48.810;9.148;2023-08-08T05:09:50;98202.06;;;14.76;90.92
28312;BME280;15572;48.810;9.148;2023-08-08T05:14:47;98190.00;;;14.65;91.95
28312;BME280;15572;48.810;9.148;2023-08-08T05:19:43;98186.22;;;14.66;93.01
28312;BME280;15572;48.810;9.148;2023-08-08T05:24:41;98185.94;;;14.74;93.45
28312;BME280;15572;48.810;9.148;2023-08-08T05:29:38;98187.56;;;14.82;94.41
28312;BME280;15572;48.810;9.148;2023-08-08T05:34:36;98183.31;;;14.86;93.44
28312;BME280;15572;48.810;9.148;2023-08-08T05:39:32;98190.53;;;14.99;91.45
28312;BME280;15572;48.810;9.148;2023-08-08T05:44:30;98204.84;;;15.12;91.00
28312;BME280;15572;48.810;9.148;2023-08-08T05:49:26;98206.25;;;15.22;90.20
28312;BME280;15572;48.810;9.148;2023-08-08T05:54:23;98212.44;;;15.29;91.60
28312;BME280;15572;48.810;9.148;2023-08-08T05:59:19;98212.59;;;15.34;88.67
28312;BME280;15572;48.810;9.148;2023-08-08T06:04:17;98215.94;;;15.36;89.53
28312;BME280;15572;48.810;9.148;2023-08-08T06:09:14;98215.63;;;15.44;88.76
28312;BME280;15572;48.810;9.148;2023-08-08T06:14:10;98204.66;;;15.50;87.84
28312;BME280;15572;48.810;9.148;2023-08-08T06:19:07;98202.66;;;15.64;89.97
28312;BME280;15572;48.810;9.148;2023-08-08T06:24:05;98208.84;;;15.89;86.37
28312;BME280;15572;48.810;9.148;2023-08-08T06:29:02;98207.53;;;15.92;84.82
28312;BME280;15572;48.810;9.148;2023-08-08T06:33:58;98209.34;;;15.98;85.14
28312;BME280;15572;48.810;9.148;2023-08-08T06:38:55;98206.16;;;16.01;85.17
28312;BME280;15572;48.810;9.148;2023-08-08T06:43:52;98208.13;;;16.12;86.11
28312;BME280;15572;48.810;9.148;2023-08-08T06:48:49;98207.19;;;16.18;87.25
28312;BME280;15572;48.810;9.148;2023-08-08T06:53:48;98209.22;;;16.23;86.77
28312;BME280;15572;48.810;9.148;2023-08-08T06:58:44;98202.56;;;16.30;86.61
28312;BME280;15572;48.810;9.148;2023-08-08T07:03:42;98197.63;;;16.39;84.16
28312;BME280;15572;48.810;9.148;2023-08-08T07:08:38;98200.25;;;16.46;85.06
28312;BME280;15572;48.810;9.148;2023-08-08T07:13:35;98201.09;;;16.58;84.49
28312;BME280;15572;48.810;9.148;2023-08-08T07:18:31;98199.38;;;16.63;83.44
28312;BME280;15572;48.810;9.148;2023-08-08T07:23:29;98197.72;;;16.74;82.53
28312;BME280;15572;48.810;9.148;2023-08-08T07:28:26;98191.53;;;16.78;79.50
28312;BME280;15572;48.810;9.148;2023-08-08T07:33:22;98193.97;;;16.98;76.47
28312;BME280;15572;48.810;9.148;2023-08-08T07:38:19;98196.53;;;17.05;78.09
28312;BME280;15572;48.810;9.148;2023-08-08T07:43:17;98193.94;;;17.33;78.28
28312;BME280;15572;48.810;9.148;2023-08-08T07:48:13;98191.63;;;17.65;70.81
28312;BME280;15572;48.810;9.148;2023-08-08T07:53:10;98201.47;;;17.89;67.38
28312;BME280;15572;48.810;9.148;2023-08-08T07:58:06;98188.00;;;17.88;66.47
28312;BME280;15572;48.810;9.148;2023-08-08T08:03:04;98179.59;;;17.78;66.52
28312;BME280;15572;48.810;9.148;2023-08-08T08:08:01;98183.94;;;17.90;70.24
28312;BME280;15572;48.810;9.148;2023-08-08T08:12:58;98187.72;;;18.01;66.14
28312;BME280;15572;48.810;9.148;2023-08-08T08:17:54;98194.06;;;17.90;68.08
28312;BME280;15572;48.810;9.148;2023-08-08T08:22:52;98178.97;;;17.87;69.77
28312;BME280;15572;48.810;9.148;2023-08-08T08:27:48;98187.16;;;17.99;70.44
28312;BME280;15572;48.810;9.148;2023-08-08T08:32:45;98186.84;;;18.12;67.59
28312;BME280;15572;48.810;9.148;2023-08-08T08:37:41;98191.25;;;18.13;67.76
28312;BME280;15572;48.810;9.148;2023-08-08T08:42:40;98181.06;;;18.25;67.05
28312;BME280;15572;48.810;9.148;2023-08-08T08:47:37;98180.28;;;18.41;68.41
28312;BME280;15572;48.810;9.148;2023-08-08T08:52:33;98172.78;;;18.37;67.59
28312;BME280;15572;48.810;9.148;2023-08-08T08:57:30;98158.75;;;18.50;66.15
28312;BME280;15572;48.810;9.148;2023-08-08T09:02:29;98163.13;;;18.63;63.94
28312;BME280;15572;48.810;9.148;2023-08-08T09:07:25;98156.72;;;18.74;64.77
28312;BME280;15572;48.810;9.148;2023-08-08T09:12:23;98157.72;;;18.84;62.89
28312;BME280;15572;48.810;9.148;2023-08-08T09:17:20;98152.22;;;19.01;62.75
28312;BME280;15572;48.810;9.148;2023-08-08T09:22:18;98150.09;;;19.25;63.12
28312;BME280;15572;48.810;9.148;2023-08-08T09:27:15;98149.97;;;19.37;61.16
28312;BME280;15572;48.810;9.148;2023-08-08T09:32:12;98148.84;;;19.32;58.26
28312;BME280;15572;48.810;9.148;2023-08-08T09:37:09;98132.50;;;19.43;54.67
28312;BME280;15572;48.810;9.148;2023-08-08T09:42:08;98133.94;;;19.67;51.71
28312;BME280;15572;48.810;9.148;2023-08-08T09:47:12;98134.00;;;19.50;53.63
28312;BME280;15572;48.810;9.148;2023-08-08T09:52:09;98123.91;;;19.56;49.54
28312;BME280;15572;48.810;9.148;2023-08-08T09:57:06;98129.09;;;19.52;50.85
28312;BME280;15572;48.810;9.148;2023-08-08T10:02:05;98123.06;;;19.77;49.13
28312;BME280;15572;48.810;9.148;2023-08-08T10:07:01;98130.88;;;20.12;49.41
28312;BME280;15572;48.810;9.148;2023-08-08T10:11:59;98128.09;;;20.34;48.95
28312;BME280;15572;48.810;9.148;2023-08-08T10:16:56;98118.19;;;20.33;46.91
28312;BME280;15572;48.810;9.148;2023-08-08T10:21:58;98111.53;;;20.55;45.61
28312;BME280;15572;48.810;9.148;2023-08-08T10:26:57;98120.81;;;20.49;45.99
28312;BME280;15572;48.810;9.148;2023-08-08T10:31:58;98121.28;;;20.41;46.37
28312;BME280;15572;48.810;9.148;2023-08-08T10:36:57;98120.16;;;20.69;48.25
28312;BME280;15572;48.810;9.148;2023-08-08T10:41:53;98122.34;;;20.67;44.64
28312;BME280;15572;48.810;9.148;2023-08-08T10:46:52;98107.44;;;20.63;45.66
28312;BME280;15572;48.810;9.148;2023-08-08T10:51:50;98111.69;;;20.76;46.38
28312;BME280;15572;48.810;9.148;2023-08-08T10:56:49;98117.81;;;20.88;44.89
28312;BME280;15572;48.810;9.148;2023-08-08T11:01:47;98103.19;;;21.19;43.91
28312;BME280;15572;48.810;9.148;2023-08-08T11:06:44;98112.53;;;21.75;42.25
28312;BME280;15572;48.810;9.148;2023-08-08T11:11:43;98111.97;;;21.68;40.85
28312;BME280;15572;48.810;9.148;2023-08-08T11:16:42;98104.59;;;21.89;40.16
28312;BME280;15572;48.810;9.148;2023-08-08T11:21:43;98118.22;;;22.36;39.33
28312;BME280;15572;48.810;9.148;2023-08-08T11:26:41;98103.25;;;22.02;41.12
28312;BME280;15572;48.810;9.148;2023-08-08T11:31:39;98109.38;;;22.24;37.13
28312;BME280;15572;48.810;9.148;2023-08-08T11:36:38;98099.75;;;22.57;38.74
28312;BME280;15572;48.810;9.148;2023-08-08T11:41:36;98102.66;;;23.52;37.34
28312;BME280;15572;48.810;9.148;2023-08-08T11:46:32;98085.56;;;23.49;37.23
28312;BME280;15572;48.810;9.148;2023-08-08T11:51:29;98090.63;;;22.87;39.31
28312;BME280;15572;48.810;9.148;2023-08-08T11:56:27;98099.97;;;22.00;40.15
28312;BME280;15572;48.810;9.148;2023-08-08T12:01:26;98089.84;;;22.86;40.40
28312;BME280;15572;48.810;9.148;2023-08-08T12:06:28;98081.53;;;22.81;39.12
28312;BME280;15572;48.810;9.148;2023-08-08T12:11:24;98090.97;;;22.75;38.48
28312;BME280;15572;48.810;9.148;2023-08-08T12:16:27;98068.31;;;22.33;38.70
28312;BME280;15572;48.810;9.148;2023-08-08T12:21:24;98070.78;;;22.70;37.58
28312;BME280;15572;48.810;9.148;2023-08-08T12:26:21;98053.38;;;22.99;36.85
28312;BME280;15572;48.810;9.148;2023-08-08T12:31:18;98063.91;;;22.37;39.35
28312;BME280;15572;48.810;9.148;2023-08-08T12:36:15;98061.41;;;22.50;40.24
28312;BME280;15572;48.810;9.148;2023-08-08T12:41:12;98043.44;;;22.98;38.94
28312;BME280;15572;48.810;9.148;2023-08-08T12:46:08;98055.00;;;23.05;37.10
28312;BME280;15572;48.810;9.148;2023-08-08T12:51:05;98039.47;;;23.30;37.47
28312;BME280;15572;48.810;9.148;2023-08-08T12:56:04;98040.09;;;23.81;37.84
28312;BME280;15572;48.810;9.148;2023-08-08T13:01:00;98048.59;;;24.33;37.60
28312;BME280;15572;48.810;9.148;2023-08-08T13:05:57;98049.69;;;24.32;37.80
28312;BME280;15572;48.810;9.148;2023-08-08T13:10:53;98046.06;;;24.37;38.81
28312;BME280;15572;48.810;9.148;2023-08-08T13:15:51;98048.25;;;23.52;39.68
28312;BME280;15572;48.810;9.148;2023-08-08T13:20:48;98048.16;;;22.62;42.76
28312;BME280;15572;48.810;9.148;2023-08-08T13:25:44;98047.34;;;22.32;44.73
28312;BME280;15572;48.810;9.148;2023-08-08T13:30:41;98050.88;;;23.13;44.16
28312;BME280;15572;48.810;9.148;2023-08-08T13:35:39;98041.41;;;23.34;42.81
28312;BME280;15572;48.810;9.148;2023-08-08T13:40:36;98041.03;;;23.61;39.54
28312;BME280;15572;48.810;9.148;2023-08-08T13:45:32;98034.16;;;24.03;39.17
28312;BME280;15572;48.810;9.148;2023-08-08T13:50:29;98028.31;;;23.60;39.41
28312;BME280;15572;48.810;9.148;2023-08-08T13:55:26;98023.41;;;23.37;39.93
28312;BME280;15572;48.810;9.148;2023-08-08T14:00:23;98023.38;;;22.42;41.73
28312;BME280;15572;48.810;9.148;2023-08-08T14:05:20;98022.81;;;22.15;42.56
28312;BME280;15572;48.810;9.148;2023-08-08T14:10:16;98024.13;;;21.92;43.17
28312;BME280;15572;48.810;9.148;2023-08-08T14:15:14;98035.38;;;21.70;43.93
28312;BME280;15572;48.810;9.148;2023-08-08T14:20:11;98035.97;;;21.82;44.18
28312;BME280;15572;48.810;9.148;2023-08-08T14:25:08;98024.44;;;21.96;43.61
28312;BME280;15572;48.810;9.148;2023-08-08T14:30:05;98026.03;;;21.81;44.77
28312;BME280;15572;48.810;9.148;2023-08-08T14:35:04;98039.53;;;21.78;43.96
28312;BME280;15572;48.810;9.148;2023-08-08T14:40:01;98040.34;;;21.73;44.11
28312;BME280;15572;48.810;9.148;2023-08-08T14:44:58;98050.16;;;21.44;46.07
28312;BME280;15572;48.810;9.148;2023-08-08T14:49:54;98044.59;;;21.29;46.52
28312;BME280;15572;48.810;9.148;2023-08-08T14:54:52;98048.41;;;21.18;47.10
28312;BME280;15572;48.810;9.148;2023-08-08T14:59:48;98055.53;;;21.14;48.36
28312;BME280;15572;48.810;9.148;2023-08-08T15:04:45;98043.00;;;20.91;48.64
28312;BME280;15572;48.810;9.148;2023-08-08T15:09:41;98052.84;;;20.82;49.34
28312;BME280;15572;48.810;9.148;2023-08-08T15:14:39;98043.41;;;20.68;50.40
28312;BME280;15572;48.810;9.148;2023-08-08T15:19:35;98049.56;;;20.85;50.26
28312;BME280;15572;48.810;9.148;2023-08-08T15:24:33;98050.78;;;21.56;48.71
28312;BME280;15572;48.810;9.148;2023-08-08T15:29:31;98055.19;;;21.62;47.15
28312;BME280;15572;48.810;9.148;2023-08-08T15:34:29;98050.78;;;21.66;47.73
28312;BME280;15572;48.810;9.148;2023-08-08T15:39:25;98042.00;;;21.12;49.14
28312;BME280;15572;48.810;9.148;2023-08-08T15:44:22;98049.28;;;20.81;50.36
28312;BME280;15572;48.810;9.148;2023-08-08T15:49:18;98053.59;;;20.67;51.23
28312;BME280;15572;48.810;9.148;2023-08-08T15:54:16;98053.25;;;20.58;50.72
28312;BME280;15572;48.810;9.148;2023-08-08T15:59:13;98052.47;;;20.68;50.96
28312;BME280;15572;48.810;9.148;2023-08-08T16:04:09;98057.75;;;20.75;51.44
28312;BME280;15572;48.810;9.148;2023-08-08T16:09:08;98056.25;;;20.94;51.07
28312;BME280;15572;48.810;9.148;2023-08-08T16:14:06;98048.91;;;21.10;50.23
28312;BME280;15572;48.810;9.148;2023-08-08T16:19:03;98045.84;;;21.11;49.20
28312;BME280;15572;48.810;9.148;2023-08-08T16:24:00;98049.78;;;21.15;49.79
28312;BME280;15572;48.810;9.148;2023-08-08T16:28:56;98050.16;;;20.92;49.36
28312;BME280;15572;48.810;9.148;2023-08-08T16:33:54;98049.53;;;20.80;51.01
28312;BME280;15572;48.810;9.148;2023-08-08T16:38:51;98044.00;;;20.75;51.24
28312;BME280;15572;48.810;9.148;2023-08-08T16:43:54;98052.53;;;20.78;50.91
28312;BME280;15572;48.810;9.148;2023-08-08T16:48:50;98053.09;;;20.75;50.85
28312;BME280;15572;48.810;9.148;2023-08-08T16:53:48;98052.50;;;20.73;51.93
28312;BME280;15572;48.810;9.148;2023-08-08T16:58:45;98053.63;;;20.72;52.72
28312;BME280;15572;48.810;9.148;2023-08-08T17:03:41;98054.09;;;20.64;51.98
28312;BME280;15572;48.810;9.148;2023-08-08T17:08:38;98055.47;;;20.62;52.51
28312;BME280;15572;48.810;9.148;2023-08-08T17:13:35;98064.59;;;20.67;52.20
28312;BME280;15572;48.810;9.148;2023-08-08T17:18:32;98061.38;;;20.80;49.96
28312;BME280;15572;48.810;9.148;2023-08-08T17:23:28;98064.34;;;20.74;49.32
28312;BME280;15572;48.810;9.148;2023-08-08T17:28:25;98063.19;;;20.65;49.90
28312;BME280;15572;48.810;9.148;2023-08-08T17:33:23;98058.13;;;20.51;51.18
28312;BME280;15572;48.810;9.148;2023-08-08T17:38:19;98067.41;;;20.40;51.99
28312;BME280;15572;48.810;9.148;2023-08-08T17:43:16;98066.53;;;20.35;52.30
28312;BME280;15572;48.810;9.148;2023-08-08T17:48:12;98062.56;;;20.26;53.28
28312;BME280;15572;48.810;9.148;2023-08-08T17:53:10;98072.53;;;20.32;53.13
28312;BME280;15572;48.810;9.148;2023-08-08T17:58:08;98063.09;;;20.23;53.82
28312;BME280;15572;48.810;9.148;2023-08-08T18:03:05;98064.09;;;20.11;54.77
28312;BME280;15572;48.810;9.148;2023-08-08T18:08:01;98063.47;;;20.04;55.41
28312;BME280;15572;48.810;9.148;2023-08-08T18:13:00;98059.84;;;19.99;56.31
28312;BME280;15572;48.810;9.148;2023-08-08T18:17:57;98055.72;;;19.96;56.53
28312;BME280;15572;48.810;9.148;2023-08-08T18:22:53;98054.53;;;19.87;56.60
28312;BME280;15572;48.810;9.148;2023-08-08T18:27:50;98049.50;;;19.79;57.23
28312;BME280;15572;48.810;9.148;2023-08-08T18:32:48;98049.97;;;19.71;57.78
28312;BME280;15572;48.810;9.148;2023-08-08T18:37:44;98053.16;;;19.63;58.63
28312;BME280;15572;48.810;9.148;2023-08-08T18:42:41;98052.53;;;19.56;59.03
28312;BME280;15572;48.810;9.148;2023-08-08T18:47:37;98053.00;;;19.48;59.72
28312;BME280;15572;48.810;9.148;2023-08-08T18:52:35;98055.00;;;19.35;60.14
28312;BME280;15572;48.810;9.148;2023-08-08T18:57:32;98064.19;;;19.24;61.01
28312;BME280;15572;48.810;9.148;2023-08-08T19:02:29;98064.06;;;19.14;62.05
28312;BME280;15572;48.810;9.148;2023-08-08T19:07:25;98062.63;;;19.07;62.90
28312;BME280;15572;48.810;9.148;2023-08-08T19:12:23;98064.38;;;18.96;64.18
28312;BME280;15572;48.810;9.148;2023-08-08T19:17:20;98064.81;;;18.88;64.67
28312;BME280;15572;48.810;9.148;2023-08-08T19:22:16;98071.38;;;18.87;64.80
28312;BME280;15572;48.810;9.148;2023-08-08T19:27:13;98077.38;;;18.84;64.98
28312;BME280;15572;48.810;9.148;2023-08-08T19:32:10;98094.06;;;18.82;65.85
28312;BME280;15572;48.810;9.148;2023-08-08T19:37:07;98091.50;;;18.76;67.22
28312;BME280;15572;48.810;9.148;2023-08-08T19:42:04;98085.63;;;18.67;67.87
28312;BME280;15572;48.810;9.148;2023-08-08T19:47:01;98095.06;;;18.60;68.39
28312;BME280;15572;48.810;9.148;2023-08-08T19:51:59;98092.69;;;18.63;69.19
28312;BME280;15572;48.810;9.148;2023-08-08T19:56:56;98094.41;;;18.52;70.03
28312;BME280;15572;48.810;9.148;2023-08-08T20:01:52;98087.34;;;18.40;71.62
28312;BME280;15572;48.810;9.148;2023-08-08T20:06:49;98083.69;;;18.34;72.21
28312;BME280;15572;48.810;9.148;2023-08-08T20:11:47;98086.00;;;18.26;73.47
28312;BME280;15572;48.810;9.148;2023-08-08T20:16:43;98084.25;;;18.20;74.89
28312;BME280;15572;48.810;9.148;2023-08-08T20:21:40;98074.53;;;18.12;77.68
28312;BME280;15572;48.810;9.148;2023-08-08T20:26:36;98070.38;;;18.09;77.41
28312;BME280;15572;48.810;9.148;2023-08-08T20:31:34;98075.28;;;18.07;79.20
28312;BME280;15572;48.810;9.148;2023-08-08T20:36:31;98077.09;;;18.02;79.91
28312;BME280;15572;48.810;9.148;2023-08-08T20:41:27;98072.66;;;17.84;81.30
28312;BME280;15572;48.810;9.148;2023-08-08T20:46:24;98076.53;;;17.72;84.28
28312;BME280;15572;48.810;9.148;2023-08-08T20:51:21;98076.69;;;17.65;84.19
28312;BME280;15572;48.810;9.148;2023-08-08T20:56:18;98077.88;;;17.57;84.77
28312;BME280;15572;48.810;9.148;2023-08-08T21:01:15;98064.56;;;17.49;85.56
28312;BME280;15572;48.810;9.148;2023-08-08T21:06:12;98071.25;;;17.42;85.85
28312;BME280;15572;48.810;9.148;2023-08-08T21:11:09;98063.44;;;17.34;86.58
28312;BME280;15572;48.810;9.148;2023-08-08T21:16:06;98062.91;;;17.20;87.22
28312;BME280;15572;48.810;9.148;2023-08-08T21:21:02;98068.00;;;17.16;88.58
28312;BME280;15572;48.810;9.148;2023-08-08T21:25:59;98060.88;;;17.15;88.11
28312;BME280;15572;48.810;9.148;2023-08-08T21:30:57;98055.56;;;17.09;88.95
28312;BME280;15572;48.810;9.148;2023-08-08T21:35:53;98057.34;;;17.03;88.44
28312;BME280;15572;48.810;9.148;2023-08-08T21:40:49;98057.94;;;16.94;90.90
28312;BME280;15572;48.810;9.148;2023-08-08T21:45:46;98048.56;;;16.90;90.26
28312;BME280;15572;48.810;9.148;2023-08-08T21:50:44;98048.31;;;16.91;90.09
28312;BME280;15572;48.810;9.148;2023-08-08T21:55:41;98039.28;;;16.91;90.05
28312;BME280;15572;48.810;9.148;2023-08-08T22:00:37;98035.00;;;16.95;89.17
28312;BME280;15572;48.810;9.148;2023-08-08T22:05:34;98023.34;;;16.99;88.95
28312;BME280;15572;48.810;9.148;2023-08-08T22:10:33;98020.25;;;17.07;87.32
28312;BME280;15572;48.810;9.148;2023-08-08T22:15:29;98004.53;;;17.14;86.24
28312;BME280;15572;48.810;9.148;2023-08-08T22:20:26;98001.06;;;17.19;85.31
28312;BME280;15572;48.810;9.148;2023-08-08T22:25:22;98003.28;;;17.22;84.95
28312;BME280;15572;48.810;9.148;2023-08-08T22:30:20;98004.22;;;17.27;84.24
28312;BME280;15572;48.810;9.148;2023-08-08T22:35:17;97998.28;;;17.31;83.99
28312;BME280;15572;48.810;9.148;2023-08-08T22:40:14;97996.81;;;17.40;83.10
28312;BME280;15572;48.810;9.148;2023-08-08T22:45:10;97991.66;;;17.43;82.64
28312;BME280;15572;48.810;9.148;2023-08-08T22:50:09;97995.00;;;17.45;82.29
28312;BME280;15572;48.810;9.148;2023-08-08T22:55:06;97997.25;;;17.48;81.95
28312;BME280;15572;48.810;9.148;2023-08-08T23:00:03;97992.34;;;17.50;81.85
28312;BME280;15572;48.810;9.148;2023-08-08T23:05:01;97983.09;;;17.51;81.17
28312;BME280;15572;48.810;9.148;2023-08-08T23:09:59;97982.81;;;17.53;81.25
28312;BME280;15572;48.810;9.148;2023-08-08T23:14:56;97984.91;;;17.46;81.80
28312;BME280;15572;48.810;9.148;2023-08-08T23:19:52;97990.09;;;17.47;81.60
28312;BME280;15572;48.810;9.148;2023-08-08T23:24:49;97989.53;;;17.45;82.34
28312;BME280;15572;48.810;9.148;2023-08-08T23:29:47;97993.34;;;17.44;82.63
28312;BME280;15572;48.810;9.148;2023-08-08T23:34:43;97980.72;;;17.43;82.36
28312;BME280;15572;48.810;9.148;2023-08-08T23:39:40;97979.66;;;17.44;82.21
28312;BME280;15572;48.810;9.148;2023-08-08T23:44:36;97977.50;;;17.46;82.03
28312;BME280;15572;48.810;9.148;2023-08-08T23:49:34;97973.13;;;17.45;82.03
28312;BME280;15572;48.810;9.148;2023-08-08T23:54:30;97977.50;;;17.46;82.01
28312;BME280;15572;48.810;9.148;2023-08-08T23:59:27;97974.78;;;17.46;81.34
